sensor_id;sensor_type;location;lat;lon;timestamp;P1;durP1;ratioP1;P2;durP2;ratioP2
29478;SDS011;16437;41.836;23.480;2022-12-07T00:02:28;9.75;;;5.55;;
29478;SDS011;16437;41.836;23.480;2022-12-07T00:07:56;8.95;;;5.05;;
29478;SDS011;16437;41.836;23.480;2022-12-07T00:13:22;9.00;;;5.22;;
29478;SDS011;16437;41.836;23.480;2022-12-07T00:18:48;7.87;;;4.78;;
29478;SDS011;16437;41.836;23.480;2022-12-07T00:24:15;8.00;;;5.12;;
29478;SDS011;16437;41.836;23.480;2022-12-07T00:29:41;10.50;;;5.40;;
29478;SDS011;16437;41.836;23.480;2022-12-07T00:35:08;6.92;;;4.72;;
29478;SDS011;16437;41.836;23.480;2022-12-07T00:40:34;9.40;;;5.03;;
29478;SDS011;16437;41.836;23.480;2022-12-07T00:46:01;7.30;;;4.67;;
29478;SDS011;16437;41.836;23.480;2022-12-07T00:51:28;7.10;;;4.47;;
29478;SDS011;16437;41.836;23.480;2022-12-07T00:56:54;7.22;;;4.55;;
29478;SDS011;16437;41.836;23.480;2022-12-07T01:02:21;8.90;;;5.12;;
29478;SDS011;16437;41.836;23.480;2022-12-07T01:07:47;9.50;;;5.78;;
29478;SDS011;16437;41.836;23.480;2022-12-07T01:13:14;8.10;;;5.03;;
29478;SDS011;16437;41.836;23.480;2022-12-07T01:18:41;9.90;;;5.05;;
29478;SDS011;16437;41.836;23.480;2022-12-07T01:24:10;7.70;;;4.60;;
29478;SDS011;16437;41.836;23.480;2022-12-07T01:29:36;9.35;;;5.22;;
29478;SDS011;16437;41.836;23.480;2022-12-07T01:35:03;9.30;;;5.62;;
29478;SDS011;16437;41.836;23.480;2022-12-07T01:40:30;8.80;;;4.92;;
29478;SDS011;16437;41.836;23.480;2022-12-07T01:45:56;6.60;;;4.58;;
29478;SDS011;16437;41.836;23.480;2022-12-07T01:51:23;9.28;;;5.20;;
29478;SDS011;16437;41.836;23.480;2022-12-07T01:56:51;8.73;;;5.30;;
29478;SDS011;16437;41.836;23.480;2022-12-07T02:02:20;8.88;;;5.22;;
29478;SDS011;16437;41.836;23.480;2022-12-07T02:07:51;12.75;;;5.40;;
29478;SDS011;16437;41.836;23.480;2022-12-07T02:13:24;8.88;;;5.55;;
29478;SDS011;16437;41.836;23.480;2022-12-07T02:19:06;8.88;;;4.87;;
29478;SDS011;16437;41.836;23.480;2022-12-07T02:30:12;8.10;;;4.30;;
29478;SDS011;16437;41.836;23.480;2022-12-07T02:35:48;7.00;;;4.55;;
29478;SDS011;16437;41.836;23.480;2022-12-07T02:41:29;7.67;;;4.58;;
29478;SDS011;16437;41.836;23.480;2022-12-07T02:46:58;6.62;;;4.65;;
29478;SDS011;16437;41.836;23.480;2022-12-07T02:52:26;7.12;;;4.35;;
29478;SDS011;16437;41.836;23.480;2022-12-07T02:58:01;6.15;;;4.22;;
29478;SDS011;16437;41.836;23.480;2022-12-07T03:03:25;7.22;;;4.17;;
29478;SDS011;16437;41.836;23.480;2022-12-07T03:09:01;5.45;;;3.85;;
29478;SDS011;16437;41.836;23.480;2022-12-07T03:14:29;6.58;;;4.10;;
29478;SDS011;16437;41.836;23.480;2022-12-07T03:19:58;6.72;;;4.05;;
29478;SDS011;16437;41.836;23.480;2022-12-07T03:25:26;6.67;;;3.72;;
29478;SDS011;16437;41.836;23.480;2022-12-07T03:31:14;5.95;;;4.20;;
29478;SDS011;16437;41.836;23.480;2022-12-07T03:36:47;6.30;;;3.72;;
29478;SDS011;16437;41.836;23.480;2022-12-07T03:42:14;7.22;;;4.30;;
29478;SDS011;16437;41.836;23.480;2022-12-07T03:53:22;5.30;;;3.60;;
29478;SDS011;16437;41.836;23.480;2022-12-07T03:58:49;6.33;;;3.83;;
29478;SDS011;16437;41.836;23.480;2022-12-07T04:04:17;6.35;;;4.22;;
29478;SDS011;16437;41.836;23.480;2022-12-07T04:09:43;8.68;;;3.50;;
29478;SDS011;16437;41.836;23.480;2022-12-07T04:15:09;4.72;;;3.45;;
29478;SDS011;16437;41.836;23.480;2022-12-07T04:20:36;8.15;;;3.80;;
29478;SDS011;16437;41.836;23.480;2022-12-07T04:26:03;6.20;;;3.75;;
29478;SDS011;16437;41.836;23.480;2022-12-07T04:31:29;5.28;;;3.42;;
29478;SDS011;16437;41.836;23.480;2022-12-07T04:36:56;7.28;;;3.80;;
29478;SDS011;16437;41.836;23.480;2022-12-07T04:42:22;5.20;;;3.50;;
29478;SDS011;16437;41.836;23.480;2022-12-07T04:47:49;5.58;;;3.77;;
29478;SDS011;16437;41.836;23.480;2022-12-07T04:53:15;4.33;;;3.40;;
29478;SDS011;16437;41.836;23.480;2022-12-07T04:58:42;7.62;;;4.10;;
29478;SDS011;16437;41.836;23.480;2022-12-07T05:04:09;6.92;;;4.47;;
29478;SDS011;16437;41.836;23.480;2022-12-07T05:09:36;8.10;;;4.70;;
29478;SDS011;16437;41.836;23.480;2022-12-07T05:15:02;6.95;;;4.67;;
29478;SDS011;16437;41.836;23.480;2022-12-07T05:20:30;7.53;;;4.60;;
29478;SDS011;16437;41.836;23.480;2022-12-07T05:25:56;7.80;;;3.85;;
29478;SDS011;16437;41.836;23.480;2022-12-07T05:31:24;6.45;;;4.33;;
29478;SDS011;16437;41.836;23.480;2022-12-07T05:36:51;6.92;;;4.53;;
29478;SDS011;16437;41.836;23.480;2022-12-07T05:42:17;9.78;;;4.67;;
29478;SDS011;16437;41.836;23.480;2022-12-07T05:47:44;6.15;;;4.10;;
29478;SDS011;16437;41.836;23.480;2022-12-07T05:53:10;6.33;;;4.33;;
29478;SDS011;16437;41.836;23.480;2022-12-07T05:58:37;5.25;;;4.22;;
29478;SDS011;16437;41.836;23.480;2022-12-07T06:04:21;8.03;;;4.90;;
29478;SDS011;16437;41.836;23.480;2022-12-07T06:09:49;10.43;;;5.60;;
29478;SDS011;16437;41.836;23.480;2022-12-07T06:15:15;8.95;;;5.87;;
29478;SDS011;16437;41.836;23.480;2022-12-07T06:20:42;11.35;;;6.53;;
29478;SDS011;16437;41.836;23.480;2022-12-07T06:26:09;11.22;;;6.78;;
29478;SDS011;16437;41.836;23.480;2022-12-07T06:31:36;11.78;;;6.60;;
29478;SDS011;16437;41.836;23.480;2022-12-07T06:37:03;10.72;;;6.90;;
29478;SDS011;16437;41.836;23.480;2022-12-07T06:42:29;11.10;;;7.25;;
29478;SDS011;16437;41.836;23.480;2022-12-07T06:47:56;12.33;;;7.33;;
29478;SDS011;16437;41.836;23.480;2022-12-07T06:53:22;13.95;;;8.53;;
29478;SDS011;16437;41.836;23.480;2022-12-07T06:58:49;12.07;;;8.43;;
29478;SDS011;16437;41.836;23.480;2022-12-07T07:04:15;13.58;;;8.53;;
29478;SDS011;16437;41.836;23.480;2022-12-07T07:09:42;13.38;;;8.55;;
29478;SDS011;16437;41.836;23.480;2022-12-07T07:15:09;15.15;;;9.43;;
29478;SDS011;16437;41.836;23.480;2022-12-07T07:20:36;18.00;;;10.08;;
29478;SDS011;16437;41.836;23.480;2022-12-07T07:26:03;15.32;;;9.75;;
29478;SDS011;16437;41.836;23.480;2022-12-07T07:31:30;15.58;;;9.93;;
29478;SDS011;16437;41.836;23.480;2022-12-07T07:36:58;16.02;;;10.08;;
29478;SDS011;16437;41.836;23.480;2022-12-07T07:42:24;18.32;;;10.48;;
29478;SDS011;16437;41.836;23.480;2022-12-07T07:47:50;18.32;;;11.33;;
29478;SDS011;16437;41.836;23.480;2022-12-07T07:53:17;19.42;;;12.63;;
29478;SDS011;16437;41.836;23.480;2022-12-07T07:58:44;21.35;;;12.45;;
29478;SDS011;16437;41.836;23.480;2022-12-07T08:04:10;20.62;;;13.03;;
29478;SDS011;16437;41.836;23.480;2022-12-07T08:09:37;24.20;;;14.18;;
29478;SDS011;16437;41.836;23.480;2022-12-07T08:15:04;24.07;;;14.33;;
29478;SDS011;16437;41.836;23.480;2022-12-07T08:20:31;24.45;;;14.87;;
29478;SDS011;16437;41.836;23.480;2022-12-07T08:26:02;25.12;;;15.55;;
29478;SDS011;16437;41.836;23.480;2022-12-07T08:31:30;24.63;;;15.45;;
29478;SDS011;16437;41.836;23.480;2022-12-07T08:36:56;27.25;;;16.02;;
29478;SDS011;16437;41.836;23.480;2022-12-07T08:42:23;24.85;;;16.45;;
29478;SDS011;16437;41.836;23.480;2022-12-07T08:47:52;29.30;;;16.55;;
29478;SDS011;16437;41.836;23.480;2022-12-07T08:53:23;27.07;;;17.35;;
29478;SDS011;16437;41.836;23.480;2022-12-07T08:58:50;28.30;;;17.20;;
29478;SDS011;16437;41.836;23.480;2022-12-07T09:04:17;27.10;;;17.37;;
29478;SDS011;16437;41.836;23.480;2022-12-07T09:09:45;27.93;;;17.42;;
29478;SDS011;16437;41.836;23.480;2022-12-07T09:15:11;29.23;;;17.62;;
29478;SDS011;16437;41.836;23.480;2022-12-07T09:20:37;25.27;;;16.62;;
29478;SDS011;16437;41.836;23.480;2022-12-07T09:26:04;26.52;;;17.70;;
29478;SDS011;16437;41.836;23.480;2022-12-07T09:31:31;28.57;;;17.92;;
29478;SDS011;16437;41.836;23.480;2022-12-07T09:36:57;29.18;;;18.35;;
29478;SDS011;16437;41.836;23.480;2022-12-07T09:42:32;31.00;;;19.50;;
29478;SDS011;16437;41.836;23.480;2022-12-07T09:47:59;30.55;;;19.07;;
29478;SDS011;16437;41.836;23.480;2022-12-07T09:53:37;31.68;;;20.17;;
29478;SDS011;16437;41.836;23.480;2022-12-07T09:59:02;30.48;;;19.52;;
29478;SDS011;16437;41.836;23.480;2022-12-07T10:04:28;36.25;;;20.25;;
29478;SDS011;16437;41.836;23.480;2022-12-07T10:09:55;31.17;;;19.85;;
29478;SDS011;16437;41.836;23.480;2022-12-07T10:15:21;31.37;;;20.12;;
29478;SDS011;16437;41.836;23.480;2022-12-07T10:20:48;30.10;;;19.62;;
29478;SDS011;16437;41.836;23.480;2022-12-07T10:32:00;33.30;;;20.23;;
29478;SDS011;16437;41.836;23.480;2022-12-07T10:37:28;33.60;;;20.88;;
29478;SDS011;16437;41.836;23.480;2022-12-07T10:43:03;33.10;;;20.27;;
29478;SDS011;16437;41.836;23.480;2022-12-07T10:48:45;35.10;;;21.25;;
29478;SDS011;16437;41.836;23.480;2022-12-07T11:00:25;29.30;;;18.98;;
29478;SDS011;16437;41.836;23.480;2022-12-07T11:06:09;29.82;;;19.07;;
29478;SDS011;16437;41.836;23.480;2022-12-07T11:12:41;28.02;;;18.67;;
29478;SDS011;16437;41.836;23.480;2022-12-07T11:17:18;30.55;;;19.17;;
29478;SDS011;16437;41.836;23.480;2022-12-07T11:34:37;31.33;;;18.40;;
29478;SDS011;16437;41.836;23.480;2022-12-07T11:40:26;30.52;;;19.73;;
29478;SDS011;16437;41.836;23.480;2022-12-07T11:51:33;26.62;;;17.23;;
29478;SDS011;16437;41.836;23.480;2022-12-07T11:57:03;28.60;;;17.87;;
29478;SDS011;16437;41.836;23.480;2022-12-07T12:02:33;30.45;;;18.27;;
29478;SDS011;16437;41.836;23.480;2022-12-07T12:08:17;26.77;;;16.82;;
29478;SDS011;16437;41.836;23.480;2022-12-07T12:25:28;26.90;;;16.15;;
29478;SDS011;16437;41.836;23.480;2022-12-07T12:36:47;24.77;;;16.10;;
29478;SDS011;16437;41.836;23.480;2022-12-07T12:42:18;22.32;;;15.20;;
29478;SDS011;16437;41.836;23.480;2022-12-07T12:47:52;27.37;;;15.70;;
29478;SDS011;16437;41.836;23.480;2022-12-07T12:53:26;22.60;;;15.10;;
29478;SDS011;16437;41.836;23.480;2022-12-07T12:59:18;22.00;;;14.58;;
29478;SDS011;16437;41.836;23.480;2022-12-07T13:04:33;23.45;;;15.25;;
29478;SDS011;16437;41.836;23.480;2022-12-07T13:09:58;23.27;;;14.30;;
29478;SDS011;16437;41.836;23.480;2022-12-07T13:15:31;23.25;;;14.63;;
29478;SDS011;16437;41.836;23.480;2022-12-07T13:21:40;21.62;;;13.85;;
29478;SDS011;16437;41.836;23.480;2022-12-07T13:26:39;24.27;;;14.50;;
29478;SDS011;16437;41.836;23.480;2022-12-07T13:32:21;22.58;;;13.95;;
29478;SDS011;16437;41.836;23.480;2022-12-07T13:37:49;21.07;;;13.50;;
29478;SDS011;16437;41.836;23.480;2022-12-07T13:43:16;18.20;;;12.98;;
29478;SDS011;16437;41.836;23.480;2022-12-07T13:48:44;20.88;;;13.78;;
29478;SDS011;16437;41.836;23.480;2022-12-07T13:54:14;21.75;;;13.80;;
29478;SDS011;16437;41.836;23.480;2022-12-07T13:59:42;22.82;;;14.00;;
29478;SDS011;16437;41.836;23.480;2022-12-07T14:05:15;21.42;;;13.75;;
29478;SDS011;16437;41.836;23.480;2022-12-07T14:16:22;21.68;;;13.55;;
29478;SDS011;16437;41.836;23.480;2022-12-07T14:21:50;20.15;;;13.18;;
29478;SDS011;16437;41.836;23.480;2022-12-07T14:27:20;20.15;;;12.70;;
29478;SDS011;16437;41.836;23.480;2022-12-07T14:32:54;21.47;;;13.83;;
29478;SDS011;16437;41.836;23.480;2022-12-07T14:38:28;19.82;;;13.25;;
29478;SDS011;16437;41.836;23.480;2022-12-07T14:43:55;21.45;;;13.25;;
29478;SDS011;16437;41.836;23.480;2022-12-07T14:49:22;20.23;;;12.53;;
29478;SDS011;16437;41.836;23.480;2022-12-07T14:54:48;22.15;;;13.45;;
29478;SDS011;16437;41.836;23.480;2022-12-07T15:00:15;20.02;;;12.70;;
29478;SDS011;16437;41.836;23.480;2022-12-07T15:05:43;19.62;;;13.32;;
29478;SDS011;16437;41.836;23.480;2022-12-07T15:11:13;19.57;;;12.25;;
29478;SDS011;16437;41.836;23.480;2022-12-07T15:16:41;22.75;;;13.58;;
29478;SDS011;16437;41.836;23.480;2022-12-07T15:22:08;18.25;;;12.50;;
29478;SDS011;16437;41.836;23.480;2022-12-07T15:27:35;25.55;;;13.98;;
29478;SDS011;16437;41.836;23.480;2022-12-07T15:33:02;22.37;;;14.10;;
29478;SDS011;16437;41.836;23.480;2022-12-07T15:38:28;21.57;;;12.85;;
29478;SDS011;16437;41.836;23.480;2022-12-07T15:43:55;21.15;;;13.15;;
29478;SDS011;16437;41.836;23.480;2022-12-07T15:49:39;20.70;;;13.10;;
29478;SDS011;16437;41.836;23.480;2022-12-07T15:55:06;18.27;;;11.50;;
29478;SDS011;16437;41.836;23.480;2022-12-07T16:00:34;17.90;;;11.53;;
29478;SDS011;16437;41.836;23.480;2022-12-07T16:06:00;17.80;;;11.18;;
29478;SDS011;16437;41.836;23.480;2022-12-07T16:11:27;19.73;;;12.15;;
29478;SDS011;16437;41.836;23.480;2022-12-07T16:16:53;19.55;;;12.35;;
29478;SDS011;16437;41.836;23.480;2022-12-07T16:22:20;18.65;;;11.63;;
29478;SDS011;16437;41.836;23.480;2022-12-07T16:27:46;16.42;;;10.63;;
29478;SDS011;16437;41.836;23.480;2022-12-07T16:33:13;18.95;;;10.85;;
29478;SDS011;16437;41.836;23.480;2022-12-07T16:38:39;17.85;;;11.43;;
29478;SDS011;16437;41.836;23.480;2022-12-07T16:44:06;15.98;;;10.60;;
29478;SDS011;16437;41.836;23.480;2022-12-07T16:49:35;18.50;;;10.88;;
29478;SDS011;16437;41.836;23.480;2022-12-07T16:55:01;17.32;;;10.75;;
29478;SDS011;16437;41.836;23.480;2022-12-07T17:00:29;13.90;;;9.25;;
29478;SDS011;16437;41.836;23.480;2022-12-07T17:05:55;16.17;;;9.78;;
29478;SDS011;16437;41.836;23.480;2022-12-07T17:11:22;15.63;;;9.90;;
29478;SDS011;16437;41.836;23.480;2022-12-07T17:16:51;12.55;;;9.08;;
29478;SDS011;16437;41.836;23.480;2022-12-07T17:22:17;14.33;;;9.80;;
29478;SDS011;16437;41.836;23.480;2022-12-07T17:27:43;15.53;;;9.05;;
29478;SDS011;16437;41.836;23.480;2022-12-07T17:33:11;14.30;;;9.45;;
29478;SDS011;16437;41.836;23.480;2022-12-07T17:38:38;16.45;;;9.53;;
29478;SDS011;16437;41.836;23.480;2022-12-07T17:44:07;13.55;;;9.38;;
29478;SDS011;16437;41.836;23.480;2022-12-07T17:49:34;15.10;;;9.43;;
29478;SDS011;16437;41.836;23.480;2022-12-07T17:55:01;17.57;;;9.90;;
29478;SDS011;16437;41.836;23.480;2022-12-07T18:00:28;13.68;;;8.90;;
29478;SDS011;16437;41.836;23.480;2022-12-07T18:05:54;11.93;;;8.10;;
29478;SDS011;16437;41.836;23.480;2022-12-07T18:11:20;12.07;;;8.08;;
29478;SDS011;16437;41.836;23.480;2022-12-07T18:16:47;12.98;;;7.67;;
29478;SDS011;16437;41.836;23.480;2022-12-07T18:22:13;12.75;;;7.58;;
29478;SDS011;16437;41.836;23.480;2022-12-07T18:27:40;12.75;;;7.10;;
29478;SDS011;16437;41.836;23.480;2022-12-07T18:33:06;10.13;;;7.00;;
29478;SDS011;16437;41.836;23.480;2022-12-07T18:38:32;11.00;;;7.10;;
29478;SDS011;16437;41.836;23.480;2022-12-07T18:44:00;11.60;;;6.40;;
29478;SDS011;16437;41.836;23.480;2022-12-07T18:49:28;13.35;;;6.83;;
29478;SDS011;16437;41.836;23.480;2022-12-07T18:54:55;10.50;;;6.95;;
29478;SDS011;16437;41.836;23.480;2022-12-07T19:00:21;9.63;;;6.33;;
29478;SDS011;16437;41.836;23.480;2022-12-07T19:05:49;10.70;;;7.10;;
29478;SDS011;16437;41.836;23.480;2022-12-07T19:11:23;11.22;;;7.78;;
29478;SDS011;16437;41.836;23.480;2022-12-07T19:17:06;11.60;;;7.80;;
29478;SDS011;16437;41.836;23.480;2022-12-07T19:22:34;11.55;;;8.08;;
29478;SDS011;16437;41.836;23.480;2022-12-07T19:28:01;14.95;;;8.80;;
29478;SDS011;16437;41.836;23.480;2022-12-07T19:33:28;15.00;;;9.25;;
29478;SDS011;16437;41.836;23.480;2022-12-07T19:38:54;17.62;;;10.80;;
29478;SDS011;16437;41.836;23.480;2022-12-07T19:44:21;17.32;;;10.05;;
29478;SDS011;16437;41.836;23.480;2022-12-07T19:49:49;18.73;;;9.90;;
29478;SDS011;16437;41.836;23.480;2022-12-07T19:55:15;15.25;;;9.98;;
29478;SDS011;16437;41.836;23.480;2022-12-07T20:00:41;16.75;;;10.13;;
29478;SDS011;16437;41.836;23.480;2022-12-07T20:06:08;15.63;;;10.13;;
29478;SDS011;16437;41.836;23.480;2022-12-07T20:11:37;18.15;;;10.25;;
29478;SDS011;16437;41.836;23.480;2022-12-07T20:17:21;17.27;;;10.23;;
29478;SDS011;16437;41.836;23.480;2022-12-07T20:22:48;18.32;;;11.20;;
29478;SDS011;16437;41.836;23.480;2022-12-07T20:28:14;18.87;;;11.12;;
29478;SDS011;16437;41.836;23.480;2022-12-07T20:33:41;17.17;;;10.78;;
29478;SDS011;16437;41.836;23.480;2022-12-07T20:39:11;17.15;;;10.40;;
29478;SDS011;16437;41.836;23.480;2022-12-07T20:44:38;14.03;;;8.83;;
29478;SDS011;16437;41.836;23.480;2022-12-07T20:50:05;16.85;;;9.63;;
29478;SDS011;16437;41.836;23.480;2022-12-07T20:55:32;14.33;;;8.55;;
29478;SDS011;16437;41.836;23.480;2022-12-07T21:01:00;12.65;;;8.70;;
29478;SDS011;16437;41.836;23.480;2022-12-07T21:06:27;14.50;;;8.60;;
29478;SDS011;16437;41.836;23.480;2022-12-07T21:11:54;12.88;;;8.23;;
29478;SDS011;16437;41.836;23.480;2022-12-07T21:17:20;12.10;;;7.75;;
29478;SDS011;16437;41.836;23.480;2022-12-07T21:22:47;12.20;;;7.10;;
29478;SDS011;16437;41.836;23.480;2022-12-07T21:28:13;13.78;;;7.62;;
29478;SDS011;16437;41.836;23.480;2022-12-07T21:33:40;10.35;;;7.28;;
29478;SDS011;16437;41.836;23.480;2022-12-07T21:39:09;12.43;;;7.33;;
29478;SDS011;16437;41.836;23.480;2022-12-07T21:44:35;14.83;;;8.10;;
29478;SDS011;16437;41.836;23.480;2022-12-07T21:50:02;12.68;;;8.10;;
29478;SDS011;16437;41.836;23.480;2022-12-07T21:55:28;12.33;;;7.65;;
29478;SDS011;16437;41.836;23.480;2022-12-07T22:00:55;12.00;;;8.08;;
29478;SDS011;16437;41.836;23.480;2022-12-07T22:06:24;10.95;;;7.60;;
29478;SDS011;16437;41.836;23.480;2022-12-07T22:11:51;11.90;;;8.05;;
29478;SDS011;16437;41.836;23.480;2022-12-07T22:17:17;11.85;;;7.47;;
29478;SDS011;16437;41.836;23.480;2022-12-07T22:22:43;12.43;;;7.47;;
29478;SDS011;16437;41.836;23.480;2022-12-07T22:28:10;9.90;;;6.58;;
29478;SDS011;16437;41.836;23.480;2022-12-07T22:33:36;11.40;;;6.42;;
29478;SDS011;16437;41.836;23.480;2022-12-07T22:39:03;11.75;;;6.45;;
29478;SDS011;16437;41.836;23.480;2022-12-07T22:44:29;8.48;;;5.47;;
29478;SDS011;16437;41.836;23.480;2022-12-07T22:49:56;8.45;;;5.65;;
29478;SDS011;16437;41.836;23.480;2022-12-07T22:55:23;9.65;;;6.00;;
29478;SDS011;16437;41.836;23.480;2022-12-07T23:00:50;8.40;;;5.40;;
29478;SDS011;16437;41.836;23.480;2022-12-07T23:06:18;7.85;;;5.20;;
29478;SDS011;16437;41.836;23.480;2022-12-07T23:11:46;10.48;;;6.65;;
29478;SDS011;16437;41.836;23.480;2022-12-07T23:17:30;8.55;;;5.67;;
29478;SDS011;16437;41.836;23.480;2022-12-07T23:22:56;11.20;;;6.40;;
29478;SDS011;16437;41.836;23.480;2022-12-07T23:28:23;9.95;;;6.65;;
29478;SDS011;16437;41.836;23.480;2022-12-07T23:33:49;8.83;;;5.95;;
29478;SDS011;16437;41.836;23.480;2022-12-07T23:39:16;11.05;;;6.03;;
29478;SDS011;16437;41.836;23.480;2022-12-07T23:44:42;11.15;;;6.60;;
29478;SDS011;16437;41.836;23.480;2022-12-07T23:50:08;10.78;;;6.25;;
29478;SDS011;16437;41.836;23.480;2022-12-07T23:55:35;9.60;;;5.83;;
